Hillcrest, Florida
Current Conditions -  °F | °C
As of 2:53 AM on Tuesday 27 Jan 2015 (Local Time) from KHWO Reporting Station
Clear Clear  
Wind Chill: 54°   Ceiling: Unl
Heat Index: 54°   Visibility: 10mi
Dew Point: 48°   Wind: 6mph
Humidity: 80%   Direction: 280°W
Pressure: 29.99"   Gusts: NA
Location:  26.0179°N, 80.2031°W
Report Text: KHWO 270753Z AUTO 28005KT 10SM CLR 12/09 A2999 RMK AO2 SLP156 T01220089
Loading
Personal Weather Stations






























Interactive Weather Map New forecast layout! Learn more

10-Day Weather Forecast

Advertisements
Track Severe Weather on mobile